Time;durP1;ratioP1;P1;durP2;ratioP2;P2;SDS_P1;SDS_P2;PMS_P1;PMS_P2;Temp;Humidity;BMP_temperature;BMP_pressure;BME280_temperature;BME280_humidity;BME280_pressure;Samples;Min_cycle;Max_cycle;Signal;HPM_P1;HPM_P2
2023/09/01 00:00:12;;;;;;;3.83;3.10;;;18.60;99.90;;;;;;10421737;28;20252;-76
2023/09/01 00:05:15;;;;;;;3.40;3.13;;;18.50;99.90;;;;;;10447167;28;20848;-77
2023/09/01 00:10:18;;;;;;;3.10;2.90;;;18.50;99.90;;;;;;10457262;28;20210;-77
2023/09/01 00:15:20;;;;;;;3.30;3.10;;;18.60;99.90;;;;;;10451469;28;20226;-77
2023/09/01 00:20:22;;;;;;;2.90;2.70;;;18.60;99.90;;;;;;10419747;28;20256;-77
2023/09/01 00:25:26;;;;;;;3.20;3.07;;;18.60;99.90;;;;;;10442097;28;20249;-77
2023/09/01 00:30:29;;;;;;;3.53;3.23;;;18.60;99.90;;;;;;10451147;28;20215;-77
2023/09/01 00:35:31;;;;;;;3.00;2.80;;;18.60;99.90;;;;;;10421000;28;20285;-76
2023/09/01 00:40:35;;;;;;;3.73;3.43;;;18.60;99.90;;;;;;10445065;28;20595;-77
2023/09/01 00:45:37;;;;;;;4.37;3.20;;;18.60;99.90;;;;;;10437722;28;20221;-77
2023/09/01 00:50:41;;;;;;;3.20;3.00;;;18.60;99.90;;;;;;10452429;28;20214;-76
2023/09/01 00:55:45;;;;;;;4.20;3.17;;;18.60;99.90;;;;;;10415813;28;20201;-77
2023/09/01 01:00:47;;;;;;;3.53;3.00;;;18.70;99.90;;;;;;10419788;28;20225;-76
2023/09/01 01:06:09;;;;;;;3.63;3.33;;;18.60;99.90;;;;;;10447870;28;20230;-76
2023/09/01 01:11:18;;;;;;;3.20;3.00;;;18.60;99.90;;;;;;10435584;28;20229;-76
2023/09/01 01:16:22;;;;;;;3.37;3.07;;;18.70;99.90;;;;;;10448423;28;20211;-77
2023/09/01 01:21:27;;;;;;;3.70;3.40;;;18.70;99.90;;;;;;10418179;28;20218;-76
2023/09/01 01:26:32;;;;;;;3.20;3.00;;;18.70;99.90;;;;;;10427233;28;20194;-77
2023/09/01 01:31:35;;;;;;;4.70;3.33;;;18.70;99.90;;;;;;10446708;28;20230;-77
2023/09/01 01:36:44;;;;;;;3.60;3.30;;;18.60;99.90;;;;;;10417653;28;20205;-77
2023/09/01 01:41:53;;;;;;;3.40;3.20;;;18.50;99.90;;;;;;10443602;28;20589;-77
2023/09/01 01:46:56;;;;;;;4.30;3.90;;;18.40;99.90;;;;;;10426978;28;20222;-76
2023/09/01 01:51:59;;;;;;;3.60;3.40;;;18.30;99.90;;;;;;10445652;28;20218;-77
2023/09/01 01:57:04;;;;;;;3.57;3.37;;;18.30;99.90;;;;;;10398912;28;20198;-76
2023/09/01 02:02:06;;;;;;;3.63;3.43;;;18.30;99.90;;;;;;10443630;28;20211;-76
2023/09/01 02:07:09;;;;;;;3.67;3.47;;;18.30;99.90;;;;;;10446911;28;20226;-76
2023/09/01 02:12:12;;;;;;;3.20;3.10;;;18.30;99.90;;;;;;10444022;28;20583;-77
2023/09/01 02:17:14;;;;;;;6.13;3.30;;;18.40;99.90;;;;;;10446367;28;20202;-76
2023/09/01 02:22:17;;;;;;;3.23;2.93;;;18.40;99.90;;;;;;10408696;28;20219;-77
2023/09/01 02:27:21;;;;;;;3.93;3.63;;;18.40;99.90;;;;;;10413209;28;20197;-76
2023/09/01 02:32:23;;;;;;;3.90;3.30;;;18.40;99.90;;;;;;10446018;28;20693;-77
2023/09/01 02:37:25;;;;;;;4.27;3.87;;;18.50;99.90;;;;;;10410048;28;20194;-77
2023/09/01 02:42:28;;;;;;;4.00;3.10;;;18.50;99.90;;;;;;10445535;28;20308;-76
2023/09/01 02:47:30;;;;;;;3.83;3.30;;;18.50;99.90;;;;;;10420085;28;20747;-77
2023/09/01 02:52:33;;;;;;;4.10;3.90;;;18.50;99.90;;;;;;10456480;28;20229;-77
2023/09/01 02:57:36;;;;;;;3.43;3.23;;;18.50;99.90;;;;;;10435050;28;20573;-76
2023/09/01 03:02:39;;;;;;;4.07;3.77;;;18.50;99.90;;;;;;10417840;28;20313;-76
2023/09/01 03:07:42;;;;;;;4.10;3.80;;;18.50;99.90;;;;;;10457537;28;20205;-76
2023/09/01 03:12:48;;;;;;;3.60;3.30;;;18.50;99.90;;;;;;10450761;28;20228;-77
2023/09/01 03:17:50;;;;;;;6.27;3.80;;;18.50;99.90;;;;;;10457420;28;20198;-77
2023/09/01 03:22:52;;;;;;;3.70;3.50;;;18.50;99.90;;;;;;10436623;28;20261;-77
2023/09/01 03:27:56;;;;;;;3.90;3.50;;;18.50;99.90;;;;;;10415131;28;20203;-77
2023/09/01 03:32:58;;;;;;;3.87;3.57;;;18.50;99.90;;;;;;10456889;28;20226;-77
2023/09/01 03:38:02;;;;;;;3.90;3.60;;;18.60;99.90;;;;;;10421905;28;20213;-77
2023/09/01 03:43:06;;;;;;;3.30;3.10;;;18.60;99.90;;;;;;10452991;28;20763;-76
2023/09/01 03:48:08;;;;;;;3.40;3.13;;;18.60;99.90;;;;;;10453383;28;20209;-76
2023/09/01 03:53:11;;;;;;;3.60;3.00;;;18.60;99.90;;;;;;10415587;28;20313;-77
2023/09/01 03:58:14;;;;;;;3.30;3.00;;;18.60;99.90;;;;;;10453678;28;20766;-77
2023/09/01 04:03:16;;;;;;;4.17;3.30;;;18.60;99.90;;;;;;10475382;28;20610;-76
2023/09/01 04:08:18;;;;;;;5.17;2.93;;;18.60;99.90;;;;;;10450546;28;20234;-77
2023/09/01 04:13:22;;;;;;;3.87;3.63;;;18.60;99.90;;;;;;10454340;28;20229;-77
2023/09/01 04:18:25;;;;;;;3.00;2.80;;;18.60;99.90;;;;;;10410683;28;20218;-76
2023/09/01 04:23:27;;;;;;;3.07;2.83;;;18.50;99.90;;;;;;10448085;28;20733;-76
2023/09/01 04:28:31;;;;;;;3.33;3.13;;;18.40;99.90;;;;;;10415508;28;20238;-76
2023/09/01 04:33:33;;;;;;;3.40;3.10;;;18.40;99.90;;;;;;10418064;28;20227;-76
2023/09/01 04:38:35;;;;;;;3.00;2.90;;;18.40;99.90;;;;;;10441872;28;20209;-76
2023/09/01 04:43:39;;;;;;;2.83;2.63;;;18.30;99.90;;;;;;10427386;28;20233;-76
2023/09/01 04:48:42;;;;;;;3.00;2.73;;;18.30;99.90;;;;;;10448950;28;20229;-76
2023/09/01 04:53:44;;;;;;;2.83;2.63;;;18.30;99.90;;;;;;10417664;28;20227;-76
2023/09/01 04:58:47;;;;;;;2.23;2.13;;;18.40;99.90;;;;;;10435630;28;20199;-76
2023/09/01 05:03:50;;;;;;;2.77;2.67;;;18.50;99.90;;;;;;10425227;28;20253;-76
2023/09/01 05:08:52;;;;;;;2.70;2.60;;;18.50;99.90;;;;;;10446084;28;20216;-77
2023/09/01 05:13:55;;;;;;;2.60;2.50;;;18.50;99.90;;;;;;10425221;28;20286;-77
2023/09/01 05:18:57;;;;;;;2.23;1.97;;;18.60;99.90;;;;;;10428991;28;20190;-77
2023/09/01 05:23:59;;;;;;;2.60;2.50;;;18.60;99.90;;;;;;10428480;28;20229;-76
2023/09/01 05:29:03;;;;;;;3.97;3.20;;;18.60;99.90;;;;;;10430120;28;20198;-76
2023/09/01 05:34:06;;;;;;;3.17;2.93;;;18.70;99.90;;;;;;10481296;23;20240;-77
2023/09/01 05:39:08;;;;;;;2.70;2.50;;;18.70;99.90;;;;;;10491779;28;20731;-77
2023/09/01 05:44:12;;;;;;;4.03;3.00;;;18.70;99.90;;;;;;10478971;28;20226;-77
2023/09/01 05:49:14;;;;;;;3.47;2.73;;;18.70;99.90;;;;;;10479035;28;20202;-77
2023/09/01 05:54:16;;;;;;;3.50;3.30;;;18.70;99.90;;;;;;10477733;28;20302;-77
2023/09/01 05:59:20;;;;;;;3.50;3.20;;;18.60;99.90;;;;;;10456806;28;20606;-76
2023/09/01 06:04:22;;;;;;;3.97;3.67;;;18.50;99.90;;;;;;10460015;28;20693;-77
2023/09/01 06:09:24;;;;;;;3.50;3.30;;;18.40;99.90;;;;;;10484074;28;20209;-77
2023/09/01 06:14:27;;;;;;;3.10;2.90;;;18.40;99.90;;;;;;10490191;28;20366;-77
2023/09/01 06:19:29;;;;;;;3.50;3.30;;;18.50;99.90;;;;;;10490831;28;20205;-76
2023/09/01 06:24:31;;;;;;;4.33;4.03;;;18.40;99.90;;;;;;10459980;28;20798;-78
2023/09/01 06:29:35;;;;;;;5.40;5.00;;;18.30;99.90;;;;;;10458164;28;20205;-77
2023/09/01 06:34:37;;;;;;;5.00;4.80;;;18.20;99.90;;;;;;10480500;28;20229;-77
2023/09/01 06:39:39;;;;;;;6.60;6.30;;;18.10;99.90;;;;;;10473110;28;20212;-76
2023/09/01 06:44:42;;;;;;;7.57;7.03;;;18.00;99.90;;;;;;10472770;28;20253;-76
2023/09/01 06:49:45;;;;;;;7.87;7.47;;;17.90;99.90;;;;;;10450626;28;20240;-76
2023/09/01 06:54:47;;;;;;;8.40;8.10;;;17.90;99.90;;;;;;10478477;28;20576;-76
2023/09/01 06:59:50;;;;;;;8.60;8.20;;;17.90;99.90;;;;;;10488141;28;20239;-77
2023/09/01 07:04:52;;;;;;;7.63;7.33;;;18.00;99.90;;;;;;10463952;28;20238;-77
2023/09/01 07:09:55;;;;;;;8.40;8.00;;;18.00;99.90;;;;;;10469775;28;20217;-77
2023/09/01 07:14:58;;;;;;;8.13;7.83;;;18.00;99.90;;;;;;10488901;28;20654;-77
2023/09/01 07:20:00;;;;;;;8.50;8.20;;;18.00;99.90;;;;;;10483010;28;20212;-77
2023/09/01 07:25:03;;;;;;;9.83;9.13;;;18.10;99.90;;;;;;10462675;28;20230;-77
2023/09/01 07:30:13;;;;;;;8.53;8.13;;;18.20;99.90;;;;;;10479823;28;20206;-77
2023/09/01 07:35:15;;;;;;;8.50;8.10;;;18.20;99.90;;;;;;10482790;28;20225;-76
2023/09/01 07:40:17;;;;;;;9.10;8.80;;;18.10;99.90;;;;;;10486179;28;20213;-77
2023/09/01 07:45:20;;;;;;;9.23;8.83;;;18.20;99.90;;;;;;10496378;28;20232;-77
2023/09/01 07:50:23;;;;;;;8.90;8.60;;;18.30;99.90;;;;;;10476422;28;20194;-77
2023/09/01 07:55:25;;;;;;;9.57;9.07;;;18.40;99.90;;;;;;10479817;28;20598;-77
2023/09/01 08:00:29;;;;;;;8.73;8.33;;;18.60;99.90;;;;;;10467571;28;20229;-77
2023/09/01 08:05:31;;;;;;;9.37;8.97;;;18.70;99.90;;;;;;10480203;28;20240;-77
2023/09/01 08:10:33;;;;;;;10.17;9.60;;;18.90;99.90;;;;;;10488820;28;20215;-77
2023/09/01 08:15:37;;;;;;;9.40;9.00;;;19.00;99.90;;;;;;10469976;28;20264;-77
2023/09/01 08:20:40;;;;;;;8.30;7.90;;;19.20;99.90;;;;;;10478017;28;20730;-77
2023/09/01 08:25:42;;;;;;;8.97;8.50;;;19.30;99.90;;;;;;10470741;28;20217;-77
2023/09/01 08:30:45;;;;;;;8.70;8.30;;;19.40;99.90;;;;;;10481680;28;20197;-77
2023/09/01 08:35:47;;;;;;;7.57;7.20;;;19.60;99.90;;;;;;10494297;28;20233;-77
2023/09/01 08:40:49;;;;;;;7.17;6.70;;;19.80;99.90;;;;;;10489987;28;20708;-77
2023/09/01 08:45:54;;;;;;;6.93;6.43;;;20.10;99.90;;;;;;10494163;28;20244;-77
2023/09/01 08:50:57;;;;;;;6.13;5.93;;;20.40;99.90;;;;;;10475909;28;20263;-77
2023/09/01 08:55:59;;;;;;;6.03;5.73;;;20.60;99.90;;;;;;10483330;28;20255;-77
2023/09/01 09:01:03;;;;;;;4.93;4.73;;;20.80;99.90;;;;;;10469321;28;20198;-77
2023/09/01 09:06:05;;;;;;;4.53;4.33;;;21.00;99.90;;;;;;10474586;28;20223;-77
2023/09/01 09:11:13;;;;;;;4.10;3.90;;;21.20;99.90;;;;;;10486129;28;20224;-77
2023/09/01 09:16:17;;;;;;;4.63;4.43;;;21.30;99.90;;;;;;10472221;28;20574;-77
2023/09/01 09:21:24;;;;;;;4.73;4.53;;;21.40;99.90;;;;;;10470944;28;20724;-77
2023/09/01 09:26:27;;;;;;;4.50;4.30;;;21.50;99.90;;;;;;10470571;28;20221;-77
2023/09/01 09:31:33;;;;;;;3.70;3.50;;;21.70;99.90;;;;;;10462749;28;20222;-77
2023/09/01 09:36:36;;;;;;;3.70;3.50;;;21.90;99.90;;;;;;10473430;28;20209;-77
2023/09/01 09:41:46;;;;;;;3.93;3.73;;;22.10;99.90;;;;;;10472989;28;20229;-77
2023/09/01 09:46:50;;;;;;;3.77;3.57;;;22.20;99.90;;;;;;10479169;28;20256;-77
2023/09/01 09:51:52;;;;;;;3.27;3.17;;;22.20;99.90;;;;;;10468848;28;20225;-77
2023/09/01 09:56:57;;;;;;;3.33;3.13;;;22.20;99.90;;;;;;10488174;28;20204;-77
2023/09/01 10:02:06;;;;;;;3.00;2.90;;;22.00;99.90;;;;;;10467464;28;20300;-78
2023/09/01 10:07:10;;;;;;;3.63;3.43;;;21.80;99.90;;;;;;10456985;28;20226;-77
2023/09/01 10:12:13;;;;;;;3.17;3.07;;;21.50;99.90;;;;;;10479085;28;20214;-78
2023/09/01 10:17:17;;;;;;;3.40;3.07;;;21.40;99.90;;;;;;10468993;28;20259;-78
2023/09/01 10:22:20;;;;;;;4.07;3.87;;;21.30;99.90;;;;;;10478074;28;20224;-77
2023/09/01 10:27:23;;;;;;;4.00;3.80;;;21.30;99.90;;;;;;10492980;28;20274;-78
2023/09/01 10:32:28;;;;;;;3.87;3.60;;;21.20;99.90;;;;;;10480432;28;20257;-77
2023/09/01 10:37:31;;;;;;;3.97;3.77;;;21.30;99.90;;;;;;10478295;28;20200;-77
2023/09/01 10:42:40;;;;;;;4.60;4.30;;;21.40;99.90;;;;;;10484753;28;20232;-77
2023/09/01 10:47:46;;;;;;;3.37;3.27;;;21.50;99.90;;;;;;10479231;28;20765;-77
2023/09/01 10:53:18;;;;;;;4.20;4.00;;;21.50;99.90;;;;;;10486501;28;20253;-77
2023/09/01 10:58:20;;;;;;;3.50;3.40;;;21.70;99.90;;;;;;10479098;28;20263;-77
2023/09/01 11:03:29;;;;;;;3.43;3.23;;;22.00;99.90;;;;;;10469168;28;20232;-78
2023/09/01 11:08:34;;;;;;;3.20;3.00;;;22.20;99.90;;;;;;10480119;28;20680;-78
2023/09/01 11:13:37;;;;;;;3.50;3.30;;;22.30;99.90;;;;;;10480840;28;20247;-78
2023/09/01 11:18:41;;;;;;;3.23;3.03;;;22.40;99.90;;;;;;10487684;28;20553;-78
2023/09/01 11:23:43;;;;;;;4.13;3.83;;;22.60;99.90;;;;;;10496468;28;20703;-77
2023/09/01 11:28:45;;;;;;;3.10;2.90;;;22.60;99.90;;;;;;10478694;28;20205;-78
2023/09/01 11:34:06;;;;;;;3.50;3.20;;;22.70;99.90;;;;;;10510011;22;20248;-81
2023/09/01 11:51:52;;;;;;;2.60;2.50;;;22.70;99.90;;;;;;10432523;28;20201;-82
2023/09/01 11:57:13;;;;;;;2.33;2.23;;;22.70;99.90;;;;;;10446759;28;20194;-81
2023/09/01 12:07:57;;;;;;;2.60;2.50;;;22.30;99.90;;;;;;10438618;28;20708;-82
2023/09/01 12:13:12;;;;;;;2.60;2.40;;;22.20;99.90;;;;;;10486541;28;20221;-82
2023/09/01 12:19:08;;;;;;;2.60;2.40;;;22.10;99.90;;;;;;10506010;28;20213;-82
2023/09/01 12:24:36;;;;;;;2.13;2.03;;;22.00;99.90;;;;;;10365775;28;20272;-82
2023/09/01 12:29:56;;;;;;;2.60;2.50;;;21.90;99.90;;;;;;10505183;28;20200;-82
2023/09/01 12:35:18;;;;;;;2.27;2.17;;;21.90;99.90;;;;;;10502241;28;20289;-81
2023/09/01 12:41:11;;;;;;;2.20;2.10;;;21.90;99.90;;;;;;10460820;28;20264;-81
2023/09/01 13:02:49;;;;;;;2.80;2.60;;;22.30;99.90;;;;;;10377565;27;20541;-81
2023/09/01 13:08:06;;;;;;;2.37;2.17;;;22.30;99.90;;;;;;10558869;28;20299;-80
2023/09/01 13:13:16;;;;;;;2.17;2.07;;;22.40;99.90;;;;;;10498230;28;20703;-80
2023/09/01 13:18:37;;;;;;;1.87;1.77;;;22.40;99.90;;;;;;10402622;28;20696;-81
2023/09/01 13:23:40;;;;;;;2.20;2.10;;;22.60;99.90;;;;;;10532071;28;20269;-81
2023/09/01 13:28:43;;;;;;;2.10;2.00;;;22.70;99.90;;;;;;10431838;28;20616;-81
2023/09/01 13:33:48;;;;;;;2.10;2.00;;;22.90;99.90;;;;;;10402240;28;20212;-80
2023/09/01 13:38:50;;;;;;;3.43;2.37;;;23.10;99.90;;;;;;10534354;28;20221;-83
2023/09/01 13:43:52;;;;;;;2.50;1.80;;;23.40;99.90;;;;;;10377058;28;20219;-82
2023/09/01 13:48:57;;;;;;;1.30;1.20;;;23.30;99.90;;;;;;10440149;28;20230;-82
2023/09/01 13:53:59;;;;;;;2.97;2.10;;;23.10;99.90;;;;;;10397659;28;20787;-83
2023/09/01 13:59:01;;;;;;;1.83;1.73;;;23.00;99.90;;;;;;10436326;28;20540;-82
2023/09/01 14:04:05;;;;;;;2.80;2.10;;;22.90;99.90;;;;;;10516310;28;20231;-83
2023/09/01 14:09:08;;;;;;;2.13;2.03;;;22.90;99.90;;;;;;10429053;28;20250;-83
2023/09/01 14:14:10;;;;;;;1.97;1.87;;;23.00;99.90;;;;;;10520111;28;20216;-83
2023/09/01 14:19:14;;;;;;;1.80;1.70;;;23.10;99.90;;;;;;10352533;28;20707;-83
2023/09/01 14:24:16;;;;;;;1.73;1.63;;;23.20;99.90;;;;;;10360274;28;20262;-83
2023/09/01 14:29:18;;;;;;;2.93;1.93;;;23.30;99.90;;;;;;10534801;28;20295;-83
2023/09/01 14:34:21;;;;;;;1.80;1.70;;;23.20;99.90;;;;;;10526738;28;20696;-83
2023/09/01 14:39:23;;;;;;;2.03;1.80;;;23.10;99.90;;;;;;10350516;28;20197;-81
2023/09/01 14:44:26;;;;;;;2.00;1.90;;;22.90;99.90;;;;;;10421641;28;20216;-80
2023/09/01 14:49:30;;;;;;;1.80;1.70;;;22.80;99.90;;;;;;10342828;28;20618;-81
2023/09/01 14:54:32;;;;;;;2.27;2.13;;;22.70;99.90;;;;;;10376312;28;20697;-81
2023/09/01 14:59:34;;;;;;;2.00;1.90;;;22.60;99.90;;;;;;10341752;28;20246;-81
2023/09/01 15:04:37;;;;;;;3.60;2.13;;;22.60;99.90;;;;;;10337900;28;20252;-82
2023/09/01 15:09:39;;;;;;;2.20;2.10;;;22.60;99.90;;;;;;10342153;28;20272;-82
2023/09/01 15:14:41;;;;;;;2.10;1.90;;;22.70;99.90;;;;;;10464618;28;20259;-81
2023/09/01 15:19:47;;;;;;;2.07;1.97;;;22.80;99.90;;;;;;10542777;28;20197;-81
2023/09/01 15:24:49;;;;;;;1.90;1.77;;;22.70;99.90;;;;;;10439377;28;20212;-82
2023/09/01 15:29:51;;;;;;;2.27;2.17;;;22.70;99.90;;;;;;10339856;28;20235;-82
2023/09/01 15:34:55;;;;;;;2.57;2.37;;;22.70;99.90;;;;;;10525351;28;20217;-82
2023/09/01 15:39:57;;;;;;;2.50;2.10;;;22.60;99.90;;;;;;10339741;28;20218;-81
2023/09/01 15:44:59;;;;;;;2.17;2.07;;;22.70;99.90;;;;;;10463181;28;20230;-82
2023/09/01 15:50:02;;;;;;;2.70;2.60;;;22.70;99.90;;;;;;10487246;28;20248;-82
2023/09/01 15:55:05;;;;;;;2.10;2.00;;;22.80;99.90;;;;;;10441641;28;20265;-82
2023/09/01 16:00:09;;;;;;;2.33;1.97;;;22.80;99.90;;;;;;10334545;28;20212;-81
2023/09/01 16:05:13;;;;;;;2.60;2.40;;;22.80;99.90;;;;;;10533833;28;20701;-82
2023/09/01 16:10:15;;;;;;;2.40;2.20;;;22.70;99.90;;;;;;10337791;28;20220;-81
2023/09/01 16:15:18;;;;;;;2.50;2.30;;;22.70;99.90;;;;;;10420612;28;20231;-82
2023/09/01 16:20:24;;;;;;;2.97;2.67;;;22.60;99.90;;;;;;10535432;28;20199;-81
2023/09/01 16:25:26;;;;;;;2.40;2.23;;;22.60;99.90;;;;;;10460109;28;20251;-82
2023/09/01 16:30:28;;;;;;;2.30;2.20;;;22.50;99.90;;;;;;10340561;28;20235;-81
2023/09/01 16:35:32;;;;;;;2.60;2.40;;;22.50;99.90;;;;;;10524758;28;20234;-82
2023/09/01 16:40:34;;;;;;;2.90;2.70;;;22.40;99.90;;;;;;10344387;28;20204;-82
2023/09/01 16:45:37;;;;;;;2.60;2.40;;;22.30;99.90;;;;;;10399279;28;20224;-82
2023/09/01 16:50:43;;;;;;;2.53;2.43;;;22.20;99.90;;;;;;10480774;28;20568;-82
2023/09/01 16:55:45;;;;;;;2.90;2.70;;;22.10;99.90;;;;;;10491981;28;20216;-81
2023/09/01 17:00:47;;;;;;;3.00;2.80;;;22.10;99.90;;;;;;10372932;28;20208;-81
2023/09/01 17:05:51;;;;;;;3.43;3.23;;;21.90;99.90;;;;;;10539491;28;20217;-81
2023/09/01 17:10:53;;;;;;;3.37;3.23;;;21.80;99.90;;;;;;10377650;28;20216;-82
2023/09/01 17:15:55;;;;;;;3.57;3.27;;;21.70;99.90;;;;;;10383150;28;20227;-81
2023/09/01 17:20:59;;;;;;;3.17;2.97;;;21.60;99.90;;;;;;10522912;28;20222;-81
2023/09/01 17:26:02;;;;;;;2.97;2.70;;;21.60;99.90;;;;;;10480070;28;20303;-82
2023/09/01 17:31:04;;;;;;;2.77;2.57;;;21.50;99.90;;;;;;10356098;28;20341;-81
2023/09/01 17:36:07;;;;;;;3.00;2.73;;;21.50;99.90;;;;;;10502821;28;20231;-81
2023/09/01 17:41:12;;;;;;;6.70;2.70;;;21.40;99.90;;;;;;10365705;28;20212;-81
2023/09/01 17:46:14;;;;;;;2.90;2.70;;;21.30;99.90;;;;;;10370815;28;20231;-81
2023/09/01 17:51:18;;;;;;;3.90;2.70;;;21.20;99.90;;;;;;10368168;28;20219;-80
2023/09/01 18:08:45;;;;;;;;;;;;;;;;;;;;;
2023/09/01 18:14:45;;;;;;;3.27;3.07;;;20.70;99.90;;;;;;10419468;28;20257;-80
2023/09/01 18:21:08;;;;;;;3.60;3.40;;;20.70;99.90;;;;;;10411424;28;20636;-80
2023/09/01 18:33:50;;;;;;;;;;;;;;;;;;;;;
2023/09/01 18:39:20;;;;;;;;;;;;;;;;;;;;;
2023/09/01 18:51:38;;;;;;;3.40;3.20;;;20.20;99.90;;;;;;10423847;28;20218;-80
2023/09/01 18:58:19;;;;;;;4.90;3.93;;;20.20;99.90;;;;;;10447802;28;20308;-80
2023/09/01 19:03:48;;;;;;;;;;;;;;;;;;;;;
2023/09/01 19:15:24;;;;;;;3.57;3.30;;;20.20;99.90;;;;;;10444630;28;20216;-80
2023/09/01 19:20:37;;;;;;;7.97;3.77;;;20.20;99.90;;;;;;10449303;28;20671;-80
2023/09/01 19:44:55;;;;;;;;;;;;;;;;;;;;;
2023/09/01 19:50:41;;;;;;;5.43;3.87;;;19.80;99.90;;;;;;10412426;28;20575;-82
2023/09/01 19:55:52;;;;;;;3.37;3.17;;;19.80;99.90;;;;;;10480635;28;20698;-82
2023/09/01 20:07:29;;;;;;;;;;;;;;;;;;;;;
2023/09/01 20:20:09;;;;;;;8.03;3.57;;;19.50;99.90;;;;;;10422768;28;20291;-80
2023/09/01 21:11:48;;;;;;;5.03;3.80;;;19.20;99.90;;;;;;10166508;29;20540;-80
2023/09/01 21:24:41;;;;;;;4.57;3.53;;;19.20;99.90;;;;;;10286905;28;20220;-80
2023/09/01 21:30:57;;;;;;;3.83;3.53;;;19.20;99.90;;;;;;10406058;28;20226;-76
2023/09/01 21:36:52;;;;;;;4.00;3.73;;;19.20;99.90;;;;;;10440799;28;20194;-80
2023/09/01 21:43:27;;;;;;;3.90;3.60;;;19.20;99.90;;;;;;10322944;28;20272;-80
2023/09/01 21:48:55;;;;;;;4.07;3.50;;;19.20;99.90;;;;;;10434611;28;20285;-80
2023/09/01 22:08:32;;;;;;;4.20;3.90;;;19.10;99.90;;;;;;10286564;28;20290;-80
2023/09/01 22:14:38;;;;;;;3.60;3.30;;;19.00;99.90;;;;;;10447000;28;20632;-80
2023/09/01 22:26:44;;;;;;;3.90;3.70;;;19.00;99.90;;;;;;10335902;28;20222;-80
2023/09/01 22:32:14;;;;;;;3.90;3.60;;;19.00;99.90;;;;;;10335478;28;20231;-79
2023/09/01 22:38:06;;;;;;;3.63;3.40;;;18.90;99.90;;;;;;10308959;28;20192;-80
2023/09/01 22:44:32;;;;;;;3.50;3.27;;;18.90;99.90;;;;;;10463260;28;20233;-80
2023/09/01 22:49:50;;;;;;;4.03;3.83;;;18.80;99.90;;;;;;10412743;28;20297;-80
2023/09/01 22:55:01;;;;;;;3.77;3.57;;;18.80;99.90;;;;;;10462220;28;20224;-80
2023/09/01 23:00:22;;;;;;;3.93;3.53;;;18.80;99.90;;;;;;10462831;28;20202;-78
2023/09/01 23:05:37;;;;;;;3.13;3.00;;;18.80;99.90;;;;;;10442750;28;20210;-80
2023/09/01 23:10:42;;;;;;;6.43;3.50;;;18.80;99.90;;;;;;10458239;28;20225;-80
2023/09/01 23:15:52;;;;;;;6.90;3.50;;;18.70;99.90;;;;;;10468645;28;20222;-80
2023/09/01 23:21:01;;;;;;;3.37;3.17;;;18.70;99.90;;;;;;10461165;28;20212;-80
2023/09/01 23:26:17;;;;;;;3.43;3.13;;;18.70;99.90;;;;;;10462476;28;20226;-80
2023/09/01 23:31:29;;;;;;;3.67;3.47;;;18.60;99.90;;;;;;10450283;28;20632;-80
2023/09/01 23:37:05;;;;;;;3.70;3.50;;;18.60;99.90;;;;;;10431150;28;20209;-79
2023/09/01 23:42:18;;;;;;;6.60;3.37;;;18.60;99.90;;;;;;10447741;28;20317;-79
2023/09/01 23:47:29;;;;;;;3.87;3.63;;;18.50;99.90;;;;;;10465973;28;20510;-80
2023/09/01 23:52:44;;;;;;;3.70;3.50;;;18.50;99.90;;;;;;10451678;28;20594;-78
2023/09/01 23:58:01;;;;;;;4.90;4.50;;;18.50;99.90;;;;;;10463201;28;20231;-80
